Houlton International Airport Houlton US
ICAO: KHUL
IATA: HUL
Category: Medium
Scheduled Services: No

Elevation: 489 ft
TransAlt. 18000 ft.

Airport Communications:
ASOS:132.025
BOSTON CNTR:120.25
BANGOR RDO:122.2
CTAF/UNICOM:122.8

KHUL Zoom In..

If you have problems with the map follow the link
https://www.worldairports.se/pages/airport.php?
ICAO=KHUL

Runways:

(A) RW 01 length 2700 ft width 60 ft
---- / hdg 10

(B) RW 05 length 5015 ft width 100 ft
---- / hdg 49

(C) RW 19 length 2700 ft width 60 ft
---- / hdg 190

(D) RW 23 length 5015 ft width 100 ft
---- / hdg 229

Location; KHUL
Day. 19 / Time. 18.53 Zulu
* Altimeter: 29.81
* Temperature: -01° c. -30.2°f.
* Wind from: 290° Speed 20 kn with Gusts up to 30 kn.
Dewpoint: -14° c.
Visibility: 10 Statute Miles.
Clouds: Broken 7000 ft.
Clouds: Broken 8500 ft.

KHUL 191853Z AUTO 29020G30KT 10SM BKN070 BKN085 M01/M14 A2981 RMK AO2 PK WND 26034/1824 UPB26E35 SLP103 P0000 T10111139


Wind From 290°
Speed 20 kn.

 
 
jpsmedia worldairports.se 2020   terms of use